sensor_id;sensor_type;location;lat;lon;timestamp;temperature;humidity
54516;DHT22;40422;45.892;4.738;2023-06-14T03:02:02;18.80;99.90
54516;DHT22;40422;45.892;4.738;2023-06-14T03:04:28;18.80;99.90
54516;DHT22;40422;45.892;4.738;2023-06-14T03:06:54;18.80;99.90
54516;DHT22;40422;45.892;4.738;2023-06-14T03:09:21;18.70;99.90
54516;DHT22;40422;45.892;4.738;2023-06-14T03:11:47;18.70;99.90
54516;DHT22;40422;45.892;4.738;2023-06-14T03:14:13;18.70;99.90
54516;DHT22;40422;45.892;4.738;2023-06-14T03:16:38;18.70;99.90
54516;DHT22;40422;45.892;4.738;2023-06-14T03:19:04;18.70;99.90
54516;DHT22;40422;45.892;4.738;2023-06-14T03:21:30;18.70;99.90
54516;DHT22;40422;45.892;4.738;2023-06-14T03:23:55;18.60;99.90
54516;DHT22;40422;45.892;4.738;2023-06-14T03:26:21;18.50;99.90
54516;DHT22;40422;45.892;4.738;2023-06-14T03:28:47;18.50;99.90
54516;DHT22;40422;45.892;4.738;2023-06-14T03:31:16;18.40;99.90
54516;DHT22;40422;45.892;4.738;2023-06-14T03:33:42;18.40;99.90
54516;DHT22;40422;45.892;4.738;2023-06-14T03:36:07;18.40;99.90
54516;DHT22;40422;45.892;4.738;2023-06-14T03:38:33;18.40;99.90
54516;DHT22;40422;45.892;4.738;2023-06-14T03:41:00;18.40;99.90
54516;DHT22;40422;45.892;4.738;2023-06-14T03:43:25;18.30;99.90
54516;DHT22;40422;45.892;4.738;2023-06-14T03:45:51;18.40;99.90
54516;DHT22;40422;45.892;4.738;2023-06-14T03:48:17;18.30;99.90
54516;DHT22;40422;45.892;4.738;2023-06-14T03:50:42;18.30;99.90
54516;DHT22;40422;45.892;4.738;2023-06-14T03:53:08;18.20;99.90
54516;DHT22;40422;45.892;4.738;2023-06-14T03:55:34;18.10;99.90
54516;DHT22;40422;45.892;4.738;2023-06-14T03:58:00;18.10;99.90
54516;DHT22;40422;45.892;4.738;2023-06-14T04:00:26;18.10;99.90
54516;DHT22;40422;45.892;4.738;2023-06-14T04:02:52;18.10;99.90
54516;DHT22;40422;45.892;4.738;2023-06-14T04:05:18;18.10;99.90
54516;DHT22;40422;45.892;4.738;2023-06-14T04:07:46;18.10;99.90
54516;DHT22;40422;45.892;4.738;2023-06-14T04:10:14;18.10;99.90
54516;DHT22;40422;45.892;4.738;2023-06-14T04:12:40;18.10;99.90
54516;DHT22;40422;45.892;4.738;2023-06-14T04:15:06;18.10;99.90
54516;DHT22;40422;45.892;4.738;2023-06-14T04:17:33;18.10;99.90
54516;DHT22;40422;45.892;4.738;2023-06-14T04:19:59;18.00;99.90
54516;DHT22;40422;45.892;4.738;2023-06-14T04:22:26;18.00;99.90
54516;DHT22;40422;45.892;4.738;2023-06-14T04:24:55;18.00;99.90
54516;DHT22;40422;45.892;4.738;2023-06-14T04:27:22;18.00;99.90
54516;DHT22;40422;45.892;4.738;2023-06-14T04:29:54;18.00;99.90
54516;DHT22;40422;45.892;4.738;2023-06-14T04:32:25;18.00;99.90
54516;DHT22;40422;45.892;4.738;2023-06-14T04:34:54;17.90;99.90
54516;DHT22;40422;45.892;4.738;2023-06-14T04:37:23;17.90;99.90
54516;DHT22;40422;45.892;4.738;2023-06-14T04:39:49;17.90;99.90
54516;DHT22;40422;45.892;4.738;2023-06-14T04:42:15;17.90;99.90
54516;DHT22;40422;45.892;4.738;2023-06-14T04:44:44;17.90;99.90
54516;DHT22;40422;45.892;4.738;2023-06-14T04:47:10;17.90;99.90
54516;DHT22;40422;45.892;4.738;2023-06-14T04:49:38;17.90;99.90
54516;DHT22;40422;45.892;4.738;2023-06-14T04:52:06;17.90;99.90
54516;DHT22;40422;45.892;4.738;2023-06-14T04:54:31;17.80;99.90
54516;DHT22;40422;45.892;4.738;2023-06-14T04:56:58;17.90;99.90
54516;DHT22;40422;45.892;4.738;2023-06-14T04:59:24;18.00;99.90
54516;DHT22;40422;45.892;4.738;2023-06-14T05:01:50;18.00;99.90
54516;DHT22;40422;45.892;4.738;2023-06-14T05:04:17;18.10;99.90
54516;DHT22;40422;45.892;4.738;2023-06-14T05:06:43;18.30;99.90
54516;DHT22;40422;45.892;4.738;2023-06-14T05:09:11;18.40;99.90
54516;DHT22;40422;45.892;4.738;2023-06-14T05:11:37;18.50;99.90
54516;DHT22;40422;45.892;4.738;2023-06-14T05:14:02;18.60;99.90
54516;DHT22;40422;45.892;4.738;2023-06-14T05:16:28;18.80;99.90
54516;DHT22;40422;45.892;4.738;2023-06-14T05:18:54;18.90;99.90
54516;DHT22;40422;45.892;4.738;2023-06-14T05:21:20;19.00;99.90
54516;DHT22;40422;45.892;4.738;2023-06-14T05:23:46;19.10;99.90
54516;DHT22;40422;45.892;4.738;2023-06-14T05:26:12;19.20;99.90
54516;DHT22;40422;45.892;4.738;2023-06-14T05:28:37;19.40;99.90
54516;DHT22;40422;45.892;4.738;2023-06-14T05:31:03;19.50;99.90
54516;DHT22;40422;45.892;4.738;2023-06-14T05:33:29;19.50;99.90
54516;DHT22;40422;45.892;4.738;2023-06-14T05:35:55;19.60;99.90
54516;DHT22;40422;45.892;4.738;2023-06-14T05:38:21;19.70;99.90
54516;DHT22;40422;45.892;4.738;2023-06-14T05:40:46;19.80;99.90
54516;DHT22;40422;45.892;4.738;2023-06-14T05:43:12;19.90;99.90
54516;DHT22;40422;45.892;4.738;2023-06-14T05:45:37;20.00;99.90
54516;DHT22;40422;45.892;4.738;2023-06-14T05:48:03;20.00;99.90
54516;DHT22;40422;45.892;4.738;2023-06-14T05:50:29;20.10;99.90
54516;DHT22;40422;45.892;4.738;2023-06-14T05:52:55;20.20;99.90
54516;DHT22;40422;45.892;4.738;2023-06-14T05:55:21;20.20;99.90
54516;DHT22;40422;45.892;4.738;2023-06-14T05:57:47;20.20;99.90
54516;DHT22;40422;45.892;4.738;2023-06-14T06:00:15;20.30;99.90
54516;DHT22;40422;45.892;4.738;2023-06-14T06:02:42;20.40;99.90
54516;DHT22;40422;45.892;4.738;2023-06-14T06:05:11;20.50;99.90
54516;DHT22;40422;45.892;4.738;2023-06-14T06:07:38;20.40;99.90
54516;DHT22;40422;45.892;4.738;2023-06-14T06:10:05;20.50;99.90
54516;DHT22;40422;45.892;4.738;2023-06-14T06:12:31;20.50;99.90
54516;DHT22;40422;45.892;4.738;2023-06-14T06:14:58;20.60;99.90
54516;DHT22;40422;45.892;4.738;2023-06-14T06:17:25;20.70;99.90
54516;DHT22;40422;45.892;4.738;2023-06-14T06:19:51;20.80;99.90
54516;DHT22;40422;45.892;4.738;2023-06-14T06:22:17;20.90;99.90
54516;DHT22;40422;45.892;4.738;2023-06-14T06:24:42;21.20;99.90
54516;DHT22;40422;45.892;4.738;2023-06-14T06:27:08;21.30;99.90
54516;DHT22;40422;45.892;4.738;2023-06-14T06:29:34;21.50;99.90
54516;DHT22;40422;45.892;4.738;2023-06-14T06:32:00;21.60;99.90
54516;DHT22;40422;45.892;4.738;2023-06-14T06:34:26;21.60;99.90
54516;DHT22;40422;45.892;4.738;2023-06-14T06:36:52;21.70;99.90
54516;DHT22;40422;45.892;4.738;2023-06-14T06:39:17;21.70;99.90
54516;DHT22;40422;45.892;4.738;2023-06-14T06:41:43;21.80;99.90
54516;DHT22;40422;45.892;4.738;2023-06-14T06:44:09;21.80;99.90
54516;DHT22;40422;45.892;4.738;2023-06-14T06:46:36;21.90;99.90
54516;DHT22;40422;45.892;4.738;2023-06-14T06:49:06;22.00;99.90
54516;DHT22;40422;45.892;4.738;2023-06-14T06:51:32;22.10;99.90
54516;DHT22;40422;45.892;4.738;2023-06-14T06:53:58;22.10;99.90
54516;DHT22;40422;45.892;4.738;2023-06-14T06:56:24;22.10;99.90
54516;DHT22;40422;45.892;4.738;2023-06-14T06:58:50;22.10;99.90
54516;DHT22;40422;45.892;4.738;2023-06-14T07:01:16;22.00;99.90
54516;DHT22;40422;45.892;4.738;2023-06-14T07:03:42;21.80;99.90
54516;DHT22;40422;45.892;4.738;2023-06-14T07:06:08;21.60;99.90
54516;DHT22;40422;45.892;4.738;2023-06-14T07:08:34;21.50;99.90
54516;DHT22;40422;45.892;4.738;2023-06-14T07:11:01;21.60;99.90
54516;DHT22;40422;45.892;4.738;2023-06-14T07:13:27;21.60;99.90
54516;DHT22;40422;45.892;4.738;2023-06-14T07:15:58;21.70;99.90
54516;DHT22;40422;45.892;4.738;2023-06-14T07:18:24;21.80;99.90
54516;DHT22;40422;45.892;4.738;2023-06-14T07:20:50;21.80;99.90
54516;DHT22;40422;45.892;4.738;2023-06-14T07:23:15;21.90;99.90
54516;DHT22;40422;45.892;4.738;2023-06-14T07:25:41;21.90;99.90
54516;DHT22;40422;45.892;4.738;2023-06-14T07:28:07;22.10;99.90
54516;DHT22;40422;45.892;4.738;2023-06-14T07:30:32;22.40;99.90
54516;DHT22;40422;45.892;4.738;2023-06-14T07:32:58;22.70;99.90
54516;DHT22;40422;45.892;4.738;2023-06-14T07:35:24;23.00;99.90
54516;DHT22;40422;45.892;4.738;2023-06-14T07:37:51;23.10;98.90
54516;DHT22;40422;45.892;4.738;2023-06-14T07:40:16;23.30;99.90
54516;DHT22;40422;45.892;4.738;2023-06-14T07:42:42;23.50;99.30
54516;DHT22;40422;45.892;4.738;2023-06-14T07:45:08;23.70;98.80
54516;DHT22;40422;45.892;4.738;2023-06-14T07:47:34;23.90;99.70
54516;DHT22;40422;45.892;4.738;2023-06-14T07:49:59;24.30;99.60
54516;DHT22;40422;45.892;4.738;2023-06-14T07:52:25;24.60;98.30
54516;DHT22;40422;45.892;4.738;2023-06-14T07:54:51;24.80;97.10
54516;DHT22;40422;45.892;4.738;2023-06-14T07:57:17;25.10;96.10
54516;DHT22;40422;45.892;4.738;2023-06-14T07:59:45;25.40;95.10
54516;DHT22;40422;45.892;4.738;2023-06-14T08:02:11;25.70;95.30
54516;DHT22;40422;45.892;4.738;2023-06-14T08:04:36;25.80;93.90
54516;DHT22;40422;45.892;4.738;2023-06-14T08:07:03;26.00;93.50
54516;DHT22;40422;45.892;4.738;2023-06-14T08:09:28;26.00;92.20
54516;DHT22;40422;45.892;4.738;2023-06-14T08:11:55;25.90;92.60
54516;DHT22;40422;45.892;4.738;2023-06-14T08:14:21;25.80;92.10
54516;DHT22;40422;45.892;4.738;2023-06-14T08:16:47;25.60;91.40
54516;DHT22;40422;45.892;4.738;2023-06-14T08:19:13;25.40;91.90
54516;DHT22;40422;45.892;4.738;2023-06-14T08:21:38;25.30;91.20
54516;DHT22;40422;45.892;4.738;2023-06-14T08:24:05;25.20;91.50
54516;DHT22;40422;45.892;4.738;2023-06-14T08:26:31;25.40;92.00
54516;DHT22;40422;45.892;4.738;2023-06-14T08:28:57;25.40;90.90
54516;DHT22;40422;45.892;4.738;2023-06-14T08:31:23;25.30;90.80
54516;DHT22;40422;45.892;4.738;2023-06-14T08:33:50;25.30;91.00
54516;DHT22;40422;45.892;4.738;2023-06-14T08:36:15;25.20;91.70
54516;DHT22;40422;45.892;4.738;2023-06-14T08:38:41;25.20;91.40
54516;DHT22;40422;45.892;4.738;2023-06-14T08:41:08;25.20;92.70
54516;DHT22;40422;45.892;4.738;2023-06-14T08:43:37;25.50;92.80
54516;DHT22;40422;45.892;4.738;2023-06-14T08:46:03;25.70;92.50
54516;DHT22;40422;45.892;4.738;2023-06-14T08:48:30;25.70;91.50
54516;DHT22;40422;45.892;4.738;2023-06-14T08:51:03;25.70;92.20
54516;DHT22;40422;45.892;4.738;2023-06-14T08:53:31;25.90;91.60
54516;DHT22;40422;45.892;4.738;2023-06-14T08:56:00;25.70;91.20
54516;DHT22;40422;45.892;4.738;2023-06-14T08:58:28;25.50;91.50
54516;DHT22;40422;45.892;4.738;2023-06-14T09:00:57;25.50;92.20
54516;DHT22;40422;45.892;4.738;2023-06-14T09:03:23;25.60;90.40
54516;DHT22;40422;45.892;4.738;2023-06-14T09:05:58;25.70;90.80
54516;DHT22;40422;45.892;4.738;2023-06-14T09:08:27;25.80;90.10
54516;DHT22;40422;45.892;4.738;2023-06-14T09:10:56;25.80;90.90
54516;DHT22;40422;45.892;4.738;2023-06-14T09:13:22;25.70;90.40
54516;DHT22;40422;45.892;4.738;2023-06-14T09:15:48;25.50;89.90
54516;DHT22;40422;45.892;4.738;2023-06-14T09:18:13;25.60;90.60
54516;DHT22;40422;45.892;4.738;2023-06-14T09:20:40;25.70;90.10
54516;DHT22;40422;45.892;4.738;2023-06-14T09:23:06;26.00;90.00
54516;DHT22;40422;45.892;4.738;2023-06-14T09:25:32;26.10;89.00
54516;DHT22;40422;45.892;4.738;2023-06-14T09:27:58;26.00;87.80
54516;DHT22;40422;45.892;4.738;2023-06-14T09:30:24;26.20;89.90
54516;DHT22;40422;45.892;4.738;2023-06-14T09:32:50;26.20;90.00
54516;DHT22;40422;45.892;4.738;2023-06-14T09:35:17;26.50;89.90
54516;DHT22;40422;45.892;4.738;2023-06-14T09:37:43;26.60;89.70
54516;DHT22;40422;45.892;4.738;2023-06-14T09:40:09;26.60;89.40
54516;DHT22;40422;45.892;4.738;2023-06-14T09:42:36;26.50;90.10
54516;DHT22;40422;45.892;4.738;2023-06-14T09:45:03;26.20;91.20
54516;DHT22;40422;45.892;4.738;2023-06-14T09:47:29;26.20;90.10
54516;DHT22;40422;45.892;4.738;2023-06-14T09:49:55;26.10;90.00
54516;DHT22;40422;45.892;4.738;2023-06-14T09:52:21;26.30;88.60
54516;DHT22;40422;45.892;4.738;2023-06-14T09:54:48;26.40;88.60
54516;DHT22;40422;45.892;4.738;2023-06-14T09:57:22;26.60;90.70
54516;DHT22;40422;45.892;4.738;2023-06-14T09:59:53;26.70;89.70
54516;DHT22;40422;45.892;4.738;2023-06-14T10:02:37;26.80;90.00
54516;DHT22;40422;45.892;4.738;2023-06-14T10:05:08;27.10;90.00
54516;DHT22;40422;45.892;4.738;2023-06-14T10:07:42;27.30;90.10
54516;DHT22;40422;45.892;4.738;2023-06-14T10:10:10;27.50;90.20
54516;DHT22;40422;45.892;4.738;2023-06-14T10:12:36;27.60;89.30
54516;DHT22;40422;45.892;4.738;2023-06-14T10:15:02;27.50;88.30
54516;DHT22;40422;45.892;4.738;2023-06-14T10:17:47;27.50;89.60
54516;DHT22;40422;45.892;4.738;2023-06-14T10:22:51;27.60;88.90
54516;DHT22;40422;45.892;4.738;2023-06-14T10:25:30;27.60;88.60
54516;DHT22;40422;45.892;4.738;2023-06-14T10:28:18;27.70;88.60
54516;DHT22;40422;45.892;4.738;2023-06-14T10:31:06;28.00;85.90
54516;DHT22;40422;45.892;4.738;2023-06-14T10:33:40;28.00;87.20
54516;DHT22;40422;45.892;4.738;2023-06-14T10:38:58;28.00;85.50
54516;DHT22;40422;45.892;4.738;2023-06-14T10:41:27;28.10;86.40
54516;DHT22;40422;45.892;4.738;2023-06-14T10:46:45;28.20;87.60
54516;DHT22;40422;45.892;4.738;2023-06-14T10:49:11;28.60;84.90
54516;DHT22;40422;45.892;4.738;2023-06-14T10:51:42;28.90;83.70
54516;DHT22;40422;45.892;4.738;2023-06-14T10:54:15;28.90;83.70
54516;DHT22;40422;45.892;4.738;2023-06-14T10:56:47;28.70;82.90
54516;DHT22;40422;45.892;4.738;2023-06-14T10:59:14;28.40;83.20
54516;DHT22;40422;45.892;4.738;2023-06-14T11:04:21;28.40;79.70
54516;DHT22;40422;45.892;4.738;2023-06-14T11:06:49;28.50;80.20
54516;DHT22;40422;45.892;4.738;2023-06-14T11:11:51;28.60;75.00
54516;DHT22;40422;45.892;4.738;2023-06-14T11:14:17;28.90;72.10
54516;DHT22;40422;45.892;4.738;2023-06-14T11:16:48;29.30;72.30
54516;DHT22;40422;45.892;4.738;2023-06-14T11:19:13;29.70;76.20
54516;DHT22;40422;45.892;4.738;2023-06-14T11:21:42;29.90;74.50
54516;DHT22;40422;45.892;4.738;2023-06-14T11:24:10;29.80;75.90
54516;DHT22;40422;45.892;4.738;2023-06-14T11:26:37;29.80;75.10
54516;DHT22;40422;45.892;4.738;2023-06-14T11:29:03;29.50;76.10
54516;DHT22;40422;45.892;4.738;2023-06-14T11:31:29;29.40;75.90
54516;DHT22;40422;45.892;4.738;2023-06-14T11:33:58;29.40;78.20
54516;DHT22;40422;45.892;4.738;2023-06-14T11:36:28;29.60;76.10
54516;DHT22;40422;45.892;4.738;2023-06-14T11:39:00;29.50;76.40
54516;DHT22;40422;45.892;4.738;2023-06-14T11:41:44;29.30;76.60
54516;DHT22;40422;45.892;4.738;2023-06-14T11:44:10;29.60;75.80
54516;DHT22;40422;45.892;4.738;2023-06-14T11:46:37;29.70;71.70
54516;DHT22;40422;45.892;4.738;2023-06-14T11:49:03;29.90;73.10
54516;DHT22;40422;45.892;4.738;2023-06-14T11:51:33;30.20;75.30
54516;DHT22;40422;45.892;4.738;2023-06-14T11:54:03;30.60;73.80
54516;DHT22;40422;45.892;4.738;2023-06-14T11:56:30;31.10;69.50
54516;DHT22;40422;45.892;4.738;2023-06-14T11:58:57;31.10;71.70
54516;DHT22;40422;45.892;4.738;2023-06-14T12:01:23;31.60;69.20
54516;DHT22;40422;45.892;4.738;2023-06-14T12:03:49;32.10;68.10
54516;DHT22;40422;45.892;4.738;2023-06-14T12:06:15;32.10;64.80
54516;DHT22;40422;45.892;4.738;2023-06-14T12:08:43;32.00;65.90
54516;DHT22;40422;45.892;4.738;2023-06-14T12:11:12;32.00;65.10
54516;DHT22;40422;45.892;4.738;2023-06-14T12:13:41;32.20;66.40
54516;DHT22;40422;45.892;4.738;2023-06-14T12:16:10;32.00;66.10
54516;DHT22;40422;45.892;4.738;2023-06-14T12:18:38;31.90;65.70
54516;DHT22;40422;45.892;4.738;2023-06-14T12:21:08;32.00;67.10
54516;DHT22;40422;45.892;4.738;2023-06-14T12:23:48;32.00;66.60
54516;DHT22;40422;45.892;4.738;2023-06-14T12:26:19;32.40;66.70
54516;DHT22;40422;45.892;4.738;2023-06-14T12:28:46;32.90;62.40
54516;DHT22;40422;45.892;4.738;2023-06-14T12:31:12;32.80;57.40
54516;DHT22;40422;45.892;4.738;2023-06-14T12:33:39;32.70;62.80
54516;DHT22;40422;45.892;4.738;2023-06-14T12:36:09;32.90;61.00
54516;DHT22;40422;45.892;4.738;2023-06-14T12:38:36;32.80;60.00
54516;DHT22;40422;45.892;4.738;2023-06-14T12:41:02;33.10;59.90
54516;DHT22;40422;45.892;4.738;2023-06-14T12:43:28;33.30;58.70
54516;DHT22;40422;45.892;4.738;2023-06-14T12:45:54;33.60;57.50
54516;DHT22;40422;45.892;4.738;2023-06-14T12:48:20;33.60;54.90
54516;DHT22;40422;45.892;4.738;2023-06-14T12:50:46;33.80;56.90
54516;DHT22;40422;45.892;4.738;2023-06-14T12:53:13;34.10;55.00
54516;DHT22;40422;45.892;4.738;2023-06-14T12:55:39;33.90;55.50
54516;DHT22;40422;45.892;4.738;2023-06-14T12:58:05;33.60;51.00
54516;DHT22;40422;45.892;4.738;2023-06-14T13:00:30;33.60;55.20
54516;DHT22;40422;45.892;4.738;2023-06-14T13:02:57;33.70;52.00
54516;DHT22;40422;45.892;4.738;2023-06-14T13:05:23;33.50;51.70
54516;DHT22;40422;45.892;4.738;2023-06-14T13:07:48;33.10;51.10
54516;DHT22;40422;45.892;4.738;2023-06-14T13:10:14;33.40;52.90
54516;DHT22;40422;45.892;4.738;2023-06-14T13:12:40;33.80;53.00
54516;DHT22;40422;45.892;4.738;2023-06-14T13:15:06;34.30;53.40
54516;DHT22;40422;45.892;4.738;2023-06-14T13:17:34;34.80;50.70
54516;DHT22;40422;45.892;4.738;2023-06-14T13:20:07;35.00;51.70
54516;DHT22;40422;45.892;4.738;2023-06-14T13:22:34;35.10;48.30
54516;DHT22;40422;45.892;4.738;2023-06-14T13:24:59;34.50;51.10
54516;DHT22;40422;45.892;4.738;2023-06-14T13:27:26;34.60;49.20
54516;DHT22;40422;45.892;4.738;2023-06-14T13:29:52;33.70;48.30
54516;DHT22;40422;45.892;4.738;2023-06-14T13:32:18;33.10;50.70
54516;DHT22;40422;45.892;4.738;2023-06-14T13:34:43;32.90;48.90
54516;DHT22;40422;45.892;4.738;2023-06-14T13:37:09;32.30;49.50
54516;DHT22;40422;45.892;4.738;2023-06-14T13:39:34;32.10;48.70
54516;DHT22;40422;45.892;4.738;2023-06-14T13:42:03;31.90;49.90
54516;DHT22;40422;45.892;4.738;2023-06-14T13:44:28;31.90;50.00
54516;DHT22;40422;45.892;4.738;2023-06-14T13:46:54;32.00;50.30
54516;DHT22;40422;45.892;4.738;2023-06-14T14:26:18;32.50;44.40
54516;DHT22;40422;45.892;4.738;2023-06-14T14:28:43;32.40;45.20
54516;DHT22;40422;45.892;4.738;2023-06-14T14:31:09;32.10;44.20
54516;DHT22;40422;45.892;4.738;2023-06-14T14:33:35;31.90;45.20
54516;DHT22;40422;45.892;4.738;2023-06-14T14:36:00;32.00;44.60
54516;DHT22;40422;45.892;4.738;2023-06-14T14:38:29;32.10;45.10
54516;DHT22;40422;45.892;4.738;2023-06-14T14:40:55;31.70;43.40
54516;DHT22;40422;45.892;4.738;2023-06-14T14:43:20;31.60;43.90
54516;DHT22;40422;45.892;4.738;2023-06-14T14:45:46;31.60;44.40
54516;DHT22;40422;45.892;4.738;2023-06-14T14:48:11;31.80;44.20
54516;DHT22;40422;45.892;4.738;2023-06-14T14:50:37;31.80;44.50
54516;DHT22;40422;45.892;4.738;2023-06-14T14:53:02;32.00;43.70
54516;DHT22;40422;45.892;4.738;2023-06-14T14:55:28;32.00;43.00
54516;DHT22;40422;45.892;4.738;2023-06-14T14:57:54;32.10;43.80
54516;DHT22;40422;45.892;4.738;2023-06-14T15:00:19;32.20;42.50
54516;DHT22;40422;45.892;4.738;2023-06-14T15:02:45;32.40;43.30
54516;DHT22;40422;45.892;4.738;2023-06-14T15:05:11;32.60;44.50
54516;DHT22;40422;45.892;4.738;2023-06-14T15:07:36;32.50;43.90
54516;DHT22;40422;45.892;4.738;2023-06-14T15:10:06;32.50;44.00
54516;DHT22;40422;45.892;4.738;2023-06-14T15:12:31;32.80;44.70
54516;DHT22;40422;45.892;4.738;2023-06-14T15:14:57;32.90;44.20
54516;DHT22;40422;45.892;4.738;2023-06-14T15:17:23;32.90;43.30
54516;DHT22;40422;45.892;4.738;2023-06-14T15:19:50;33.00;43.80
54516;DHT22;40422;45.892;4.738;2023-06-14T15:22:16;33.10;43.70
54516;DHT22;40422;45.892;4.738;2023-06-14T15:24:42;33.40;45.00
54516;DHT22;40422;45.892;4.738;2023-06-14T15:27:08;33.10;44.30
54516;DHT22;40422;45.892;4.738;2023-06-14T15:29:34;32.70;44.10
54516;DHT22;40422;45.892;4.738;2023-06-14T15:32:01;32.40;44.00
54516;DHT22;40422;45.892;4.738;2023-06-14T15:34:27;32.40;45.00
54516;DHT22;40422;45.892;4.738;2023-06-14T15:36:53;32.50;44.10
54516;DHT22;40422;45.892;4.738;2023-06-14T15:39:18;32.60;44.80
54516;DHT22;40422;45.892;4.738;2023-06-14T15:41:44;33.00;44.50
54516;DHT22;40422;45.892;4.738;2023-06-14T15:44:09;33.00;43.40
54516;DHT22;40422;45.892;4.738;2023-06-14T15:46:36;32.70;43.30
54516;DHT22;40422;45.892;4.738;2023-06-14T15:49:08;32.80;45.60
54516;DHT22;40422;45.892;4.738;2023-06-14T15:51:35;32.60;44.30
54516;DHT22;40422;45.892;4.738;2023-06-14T15:54:00;32.30;43.80
54516;DHT22;40422;45.892;4.738;2023-06-14T15:56:26;32.30;43.20
54516;DHT22;40422;45.892;4.738;2023-06-14T15:58:51;31.80;43.60
54516;DHT22;40422;45.892;4.738;2023-06-14T16:01:17;31.80;45.10
54516;DHT22;40422;45.892;4.738;2023-06-14T16:03:42;31.80;45.00
54516;DHT22;40422;45.892;4.738;2023-06-14T16:06:08;31.80;44.90
54516;DHT22;40422;45.892;4.738;2023-06-14T16:08:34;32.00;43.30
54516;DHT22;40422;45.892;4.738;2023-06-14T16:10:59;32.10;43.80
54516;DHT22;40422;45.892;4.738;2023-06-14T16:13:25;32.50;43.40
54516;DHT22;40422;45.892;4.738;2023-06-14T16:15:50;32.60;43.80
54516;DHT22;40422;45.892;4.738;2023-06-14T16:18:16;32.50;43.10
54516;DHT22;40422;45.892;4.738;2023-06-14T16:20:41;32.60;43.20
54516;DHT22;40422;45.892;4.738;2023-06-14T16:23:07;32.60;43.00
54516;DHT22;40422;45.892;4.738;2023-06-14T16:25:33;32.60;43.70
54516;DHT22;40422;45.892;4.738;2023-06-14T16:27:58;32.40;43.40
54516;DHT22;40422;45.892;4.738;2023-06-14T16:30:24;32.30;43.40
54516;DHT22;40422;45.892;4.738;2023-06-14T16:32:50;31.80;42.30
54516;DHT22;40422;45.892;4.738;2023-06-14T16:35:16;31.70;43.60
54516;DHT22;40422;45.892;4.738;2023-06-14T16:37:41;31.60;43.40
54516;DHT22;40422;45.892;4.738;2023-06-14T16:40:07;31.80;43.50
54516;DHT22;40422;45.892;4.738;2023-06-14T16:42:33;32.00;42.80
54516;DHT22;40422;45.892;4.738;2023-06-14T16:44:59;31.90;42.80
54516;DHT22;40422;45.892;4.738;2023-06-14T16:47:26;31.90;43.00
54516;DHT22;40422;45.892;4.738;2023-06-14T16:49:52;31.40;42.20
54516;DHT22;40422;45.892;4.738;2023-06-14T16:52:17;31.10;43.50
54516;DHT22;40422;45.892;4.738;2023-06-14T16:54:43;31.00;43.90
54516;DHT22;40422;45.892;4.738;2023-06-14T16:57:09;31.20;43.60
54516;DHT22;40422;45.892;4.738;2023-06-14T16:59:34;31.30;43.40
54516;DHT22;40422;45.892;4.738;2023-06-14T17:02:05;31.20;43.50
54516;DHT22;40422;45.892;4.738;2023-06-14T17:04:31;31.40;45.40
54516;DHT22;40422;45.892;4.738;2023-06-14T17:06:57;31.70;44.60
54516;DHT22;40422;45.892;4.738;2023-06-14T17:09:23;32.00;44.20
54516;DHT22;40422;45.892;4.738;2023-06-14T17:11:49;32.30;45.20
54516;DHT22;40422;45.892;4.738;2023-06-14T17:14:15;32.40;45.30
54516;DHT22;40422;45.892;4.738;2023-06-14T17:16:40;32.20;43.70
54516;DHT22;40422;45.892;4.738;2023-06-14T17:19:06;31.80;43.50
54516;DHT22;40422;45.892;4.738;2023-06-14T17:21:32;31.30;44.00
54516;DHT22;40422;45.892;4.738;2023-06-14T17:23:58;31.10;44.50
54516;DHT22;40422;45.892;4.738;2023-06-14T17:26:24;30.70;44.70
54516;DHT22;40422;45.892;4.738;2023-06-14T17:28:51;30.60;44.60
54516;DHT22;40422;45.892;4.738;2023-06-14T17:31:17;30.60;45.20
54516;DHT22;40422;45.892;4.738;2023-06-14T17:33:43;30.50;44.50
54516;DHT22;40422;45.892;4.738;2023-06-14T17:36:09;30.30;45.40
54516;DHT22;40422;45.892;4.738;2023-06-14T17:38:35;30.30;45.70
54516;DHT22;40422;45.892;4.738;2023-06-14T17:41:03;30.10;46.10
54516;DHT22;40422;45.892;4.738;2023-06-14T17:43:37;29.80;46.30
54516;DHT22;40422;45.892;4.738;2023-06-14T17:46:03;29.80;46.30
54516;DHT22;40422;45.892;4.738;2023-06-14T17:48:29;29.80;46.40
54516;DHT22;40422;45.892;4.738;2023-06-14T17:51:05;29.90;46.30
54516;DHT22;40422;45.892;4.738;2023-06-14T17:53:32;29.90;46.30
54516;DHT22;40422;45.892;4.738;2023-06-14T17:55:58;30.00;46.30
54516;DHT22;40422;45.892;4.738;2023-06-14T17:58:23;30.00;46.30
54516;DHT22;40422;45.892;4.738;2023-06-14T18:00:50;29.70;46.40
54516;DHT22;40422;45.892;4.738;2023-06-14T18:03:17;29.80;47.60
54516;DHT22;40422;45.892;4.738;2023-06-14T18:05:43;29.90;48.00
54516;DHT22;40422;45.892;4.738;2023-06-14T18:08:10;30.00;47.60
54516;DHT22;40422;45.892;4.738;2023-06-14T18:10:36;29.90;47.70
54516;DHT22;40422;45.892;4.738;2023-06-14T18:13:01;30.00;48.30
54516;DHT22;40422;45.892;4.738;2023-06-14T18:15:27;30.10;48.30
54516;DHT22;40422;45.892;4.738;2023-06-14T18:17:53;30.10;48.30
54516;DHT22;40422;45.892;4.738;2023-06-14T18:20:20;30.00;48.20
54516;DHT22;40422;45.892;4.738;2023-06-14T18:22:46;30.10;49.00
54516;DHT22;40422;45.892;4.738;2023-06-14T18:25:14;30.20;48.80
54516;DHT22;40422;45.892;4.738;2023-06-14T18:27:40;30.20;48.60
54516;DHT22;40422;45.892;4.738;2023-06-14T18:30:07;30.00;48.20
54516;DHT22;40422;45.892;4.738;2023-06-14T18:32:33;29.80;48.70
54516;DHT22;40422;45.892;4.738;2023-06-14T18:35:00;29.80;48.70
54516;DHT22;40422;45.892;4.738;2023-06-14T18:37:26;29.70;48.90
54516;DHT22;40422;45.892;4.738;2023-06-14T18:39:53;29.70;48.80
54516;DHT22;40422;45.892;4.738;2023-06-14T18:42:19;29.60;48.80
54516;DHT22;40422;45.892;4.738;2023-06-14T18:44:46;29.70;49.00
54516;DHT22;40422;45.892;4.738;2023-06-14T18:47:11;29.70;49.10
54516;DHT22;40422;45.892;4.738;2023-06-14T18:49:37;29.70;49.40
54516;DHT22;40422;45.892;4.738;2023-06-14T18:52:03;29.60;49.60
54516;DHT22;40422;45.892;4.738;2023-06-14T18:54:29;29.50;49.70
54516;DHT22;40422;45.892;4.738;2023-06-14T18:56:54;29.40;51.10
54516;DHT22;40422;45.892;4.738;2023-06-14T18:59:20;29.40;51.10
54516;DHT22;40422;45.892;4.738;2023-06-14T19:01:46;29.40;51.80
54516;DHT22;40422;45.892;4.738;2023-06-14T19:04:12;29.30;51.60
54516;DHT22;40422;45.892;4.738;2023-06-14T19:06:37;29.30;51.90
54516;DHT22;40422;45.892;4.738;2023-06-14T19:09:04;29.10;52.20
54516;DHT22;40422;45.892;4.738;2023-06-14T19:11:29;29.00;52.70
54516;DHT22;40422;45.892;4.738;2023-06-14T19:13:55;28.80;52.40
54516;DHT22;40422;45.892;4.738;2023-06-14T19:16:21;28.60;52.60
54516;DHT22;40422;45.892;4.738;2023-06-14T19:18:46;28.40;53.50